createdAt,value
2023-01-20T00:00:38.280Z,63.50
2023-01-20T00:05:40.375Z,61.85
2023-01-20T00:10:42.395Z,70.53
2023-01-20T00:15:44.713Z,62.53
2023-01-20T00:20:46.857Z,52.60
2023-01-20T00:25:48.817Z,64.47
2023-01-20T00:30:50.851Z,60.85
2023-01-20T00:35:52.950Z,54.90
2023-01-20T00:40:55.445Z,54.15
2023-01-20T00:45:57.445Z,47.67
2023-01-20T00:50:59.461Z,47.83
2023-01-20T00:56:01.565Z,55.28
2023-01-20T01:01:04.037Z,40.70
2023-01-20T01:06:14.600Z,38.60
2023-01-20T01:11:16.612Z,47.55
2023-01-20T01:16:18.702Z,50.22
2023-01-20T01:21:23.747Z,42.75
2023-01-20T01:26:25.813Z,35.30
2023-01-20T01:31:27.859Z,43.42
2023-01-20T01:36:29.867Z,43.05
2023-01-20T01:41:32.102Z,40.08
2023-01-20T01:46:34.510Z,39.42
2023-01-20T01:51:41.905Z,26.88
2023-01-20T01:56:46.707Z,28.80
2023-01-20T02:07:53.677Z,29.88
2023-01-20T02:12:56.114Z,32.72
2023-01-20T02:18:37.155Z,28.70
2023-01-20T02:24:14.559Z,33.28
2023-01-20T02:29:31.737Z,30.95
2023-01-20T02:34:44.135Z,30.88
2023-01-20T02:40:17.382Z,32.15
2023-01-20T02:50:56.712Z,35.97
2023-01-20T02:55:59.281Z,32.63
2023-01-20T03:01:30.832Z,32.22
2023-01-20T03:06:38.287Z,32.45
2023-01-20T03:11:47.355Z,34.63
2023-01-20T03:16:50.623Z,32.97
2023-01-20T03:21:52.890Z,36.38
2023-01-20T03:26:55.104Z,33.78
2023-01-20T03:32:00.116Z,29.45
2023-01-20T03:37:04.227Z,30.98
2023-01-20T03:42:16.192Z,35.25
2023-01-20T03:47:18.209Z,32.83
2023-01-20T03:52:47.064Z,38.08
2023-01-20T03:57:58.883Z,30.48
2023-01-20T04:03:05.586Z,32.75
2023-01-20T04:08:10.352Z,36.00
2023-01-20T04:13:12.476Z,39.03
2023-01-20T04:18:21.371Z,41.05
2023-01-20T04:24:11.735Z,33.55
2023-01-20T04:29:13.746Z,39.83
2023-01-20T04:34:16.081Z,39.25
2023-01-20T04:39:18.074Z,42.75
2023-01-20T04:44:20.101Z,43.15
2023-01-20T04:49:22.148Z,49.33
2023-01-20T04:54:24.233Z,33.95
2023-01-20T04:59:26.795Z,45.47
2023-01-20T05:04:28.946Z,44.13
2023-01-20T05:09:30.932Z,44.83
2023-01-20T05:14:32.978Z,43.20
2023-01-20T05:19:34.991Z,48.60
2023-01-20T05:24:37.058Z,53.05
2023-01-20T05:29:39.080Z,57.60
2023-01-20T05:34:41.133Z,47.47
2023-01-20T05:39:43.173Z,35.63
2023-01-20T05:44:45.254Z,53.83
2023-01-20T05:49:47.465Z,51.38
2023-01-20T05:54:49.564Z,35.75
2023-01-20T05:59:52.596Z,37.88
2023-01-20T06:04:56.332Z,29.48
2023-01-20T06:09:58.740Z,30.60
2023-01-20T06:15:00.787Z,42.28
2023-01-20T06:20:04.676Z,49.33
2023-01-20T06:25:07.092Z,44.78
2023-01-20T06:30:09.986Z,50.80
2023-01-20T06:35:12.357Z,43.83
2023-01-20T06:40:15.363Z,52.35
2023-01-20T06:45:17.527Z,58.90
2023-01-20T06:50:19.769Z,55.88
2023-01-20T06:55:22.155Z,51.65
2023-01-20T07:00:24.512Z,46.22
2023-01-20T07:05:26.578Z,49.00
2023-01-20T07:10:28.669Z,43.92
2023-01-20T07:15:30.813Z,39.88
2023-01-20T07:20:32.976Z,57.78
2023-01-20T07:25:35.122Z,37.85
2023-01-20T07:30:37.520Z,35.85
2023-01-20T07:35:39.750Z,33.10
2023-01-20T07:40:41.834Z,37.22
2023-01-20T07:45:44.909Z,34.95
2023-01-20T07:50:47.426Z,32.13
2023-01-20T07:55:49.612Z,34.70
2023-01-20T08:00:51.879Z,33.42
2023-01-20T08:05:54.133Z,34.97
2023-01-20T08:10:56.318Z,31.48
2023-01-20T08:16:05.844Z,31.88
2023-01-20T08:21:16.492Z,28.30
2023-01-20T08:26:19.795Z,32.17
2023-01-20T08:31:26.098Z,29.20
2023-01-20T08:36:31.270Z,29.70
2023-01-20T08:41:36.840Z,29.52
2023-01-20T08:46:41.841Z,22.83
2023-01-20T08:51:45.367Z,24.85
2023-01-20T08:56:51.370Z,24.92
2023-01-20T09:01:53.476Z,24.77
2023-01-20T09:06:55.581Z,25.55
2023-01-20T09:11:57.728Z,21.98
2023-01-20T09:17:02.003Z,23.45
2023-01-20T09:22:04.459Z,21.95
2023-01-20T09:27:06.446Z,22.55
2023-01-20T09:32:08.662Z,24.75
2023-01-20T09:37:29.064Z,24.65
2023-01-20T09:43:09.975Z,26.83
2023-01-20T09:48:55.522Z,28.52
2023-01-20T09:54:07.627Z,31.13
2023-01-20T09:59:26.908Z,33.97
2023-01-20T10:04:45.883Z,31.85
2023-01-20T10:10:24.631Z,32.92
2023-01-20T10:15:36.404Z,31.85
2023-01-20T10:20:41.944Z,28.25
2023-01-20T10:26:10.643Z,30.38
2023-01-20T10:31:18.268Z,35.17
2023-01-20T10:36:27.687Z,40.67
2023-01-20T10:41:32.862Z,33.72
2023-01-20T10:47:05.081Z,40.83
2023-01-20T10:52:13.267Z,37.55
2023-01-20T10:57:16.468Z,39.35
2023-01-20T11:02:25.125Z,43.03
2023-01-20T11:07:29.107Z,44.33
2023-01-20T11:12:37.272Z,40.17
2023-01-20T11:17:39.447Z,46.88
2023-01-20T11:22:49.787Z,42.50
2023-01-20T11:27:53.025Z,50.00
2023-01-20T11:33:14.448Z,44.38
2023-01-20T14:01:15.278Z,29.42
2023-01-20T14:06:24.067Z,25.90
2023-01-20T14:11:28.019Z,23.33
2023-01-20T14:16:42.079Z,25.48
2023-01-20T14:21:44.227Z,24.75
2023-01-20T14:26:46.318Z,23.52
2023-01-20T14:31:48.587Z,21.98
2023-01-20T14:36:51.952Z,23.17
2023-01-20T14:41:57.047Z,23.92
2023-01-20T14:47:02.788Z,25.05
2023-01-20T14:57:31.720Z,27.73
2023-01-20T15:02:37.990Z,25.65
2023-01-20T15:07:40.148Z,24.92
2023-01-20T15:12:45.243Z,20.92
2023-01-20T15:18:21.750Z,21.52
2023-01-20T15:23:39.230Z,23.63
2023-01-20T15:28:45.191Z,21.98
2023-01-20T15:33:47.297Z,27.33
2023-01-20T15:38:49.959Z,25.92
2023-01-20T15:43:52.812Z,22.70
2023-01-20T15:53:57.006Z,24.35
2023-01-20T15:58:59.550Z,21.45
2023-01-20T16:04:01.841Z,27.25
2023-01-20T16:09:16.507Z,23.88
2023-01-20T16:14:18.954Z,27.20
2023-01-20T16:19:21.127Z,26.00
2023-01-20T16:24:23.163Z,25.00
2023-01-20T16:29:25.450Z,22.88
2023-01-20T16:34:27.637Z,22.55
2023-01-20T16:39:30.075Z,24.92
2023-01-20T16:44:32.256Z,25.02
2023-01-20T16:49:34.613Z,23.27
2023-01-20T16:54:37.257Z,26.60
2023-01-20T16:59:39.579Z,27.55
2023-01-20T17:04:41.955Z,26.25
2023-01-20T17:09:44.204Z,28.40
2023-01-20T17:14:46.724Z,21.50
2023-01-20T17:19:49.108Z,24.48
2023-01-20T17:24:52.094Z,23.67
2023-01-20T17:29:54.987Z,22.70
2023-01-20T17:34:57.916Z,26.17
2023-01-20T17:40:05.802Z,24.95
2023-01-20T17:45:10.383Z,26.15
2023-01-20T17:50:15.191Z,23.52
2023-01-20T17:55:18.364Z,24.27
2023-01-20T18:00:21.626Z,22.48
2023-01-20T18:05:24.857Z,29.25
2023-01-20T18:10:28.205Z,27.65
2023-01-20T18:15:30.893Z,30.90
2023-01-20T18:20:33.957Z,33.42
2023-01-20T18:25:36.888Z,31.90
2023-01-20T18:30:40.482Z,29.17
2023-01-20T18:35:44.797Z,29.30
2023-01-20T18:40:47.983Z,29.27
2023-01-20T18:45:54.327Z,28.77
2023-01-20T18:51:01.520Z,32.92
2023-01-20T18:56:13.470Z,27.08
2023-01-20T19:01:25.351Z,33.72
2023-01-20T19:06:33.307Z,31.33
2023-01-20T19:11:41.684Z,35.15
2023-01-20T19:16:49.633Z,31.33
2023-01-20T19:21:53.988Z,26.42
2023-01-20T19:26:58.916Z,25.58
2023-01-20T19:32:07.108Z,26.02
2023-01-20T19:37:10.822Z,26.05
2023-01-20T19:42:14.758Z,26.35
2023-01-20T19:47:18.043Z,23.90
2023-01-20T19:52:20.946Z,21.05
2023-01-20T19:57:24.574Z,22.13
2023-01-20T20:02:31.551Z,17.48
2023-01-20T20:07:46.094Z,18.52
2023-01-20T20:12:57.701Z,21.83
2023-01-20T20:18:00.883Z,21.13
2023-01-20T20:23:05.994Z,24.17
2023-01-20T20:28:10.138Z,20.27
2023-01-20T20:33:13.835Z,20.73
2023-01-20T20:38:17.320Z,20.30
2023-01-20T20:43:24.299Z,20.08
2023-01-20T20:48:28.649Z,23.00
2023-01-20T20:53:32.566Z,18.75
2023-01-20T20:58:43.343Z,17.40
2023-01-20T21:03:52.219Z,12.50
2023-01-20T21:08:55.574Z,23.00
2023-01-20T21:13:58.660Z,14.27
2023-01-20T21:19:03.705Z,13.73
2023-01-20T21:24:11.924Z,14.43
2023-01-20T21:29:27.332Z,12.10
2023-01-20T21:34:33.431Z,11.52
2023-01-20T21:39:38.825Z,13.15
2023-01-20T21:44:46.018Z,11.60
2023-01-20T21:50:07.610Z,11.82
2023-01-20T21:55:20.538Z,9.50
2023-01-20T22:00:23.526Z,13.75
2023-01-20T22:05:26.108Z,14.52
2023-01-20T22:10:29.699Z,9.95
2023-01-20T22:15:40.362Z,15.00
2023-01-20T22:20:44.726Z,17.40
2023-01-20T22:25:59.379Z,12.82
2023-01-20T22:31:10.665Z,13.95
2023-01-20T22:36:13.084Z,14.60
2023-01-20T22:41:18.862Z,16.33
2023-01-20T22:46:22.355Z,16.17
2023-01-20T22:51:33.826Z,16.63
2023-01-20T22:56:36.198Z,18.88
2023-01-20T23:01:38.234Z,15.40
2023-01-20T23:06:40.428Z,16.67
2023-01-20T23:11:42.495Z,15.75
2023-01-20T23:16:44.673Z,19.15
2023-01-20T23:21:46.802Z,14.70
2023-01-20T23:26:50.929Z,14.73
2023-01-20T23:31:55.602Z,15.73
2023-01-20T23:36:57.734Z,9.65
2023-01-20T23:41:59.896Z,14.15
2023-01-20T23:47:01.944Z,15.02
2023-01-20T23:52:05.097Z,12.23
2023-01-20T23:57:07.157Z,19.48
